sensor_id;sensor_type;location;lat;lon;timestamp;P1;durP1;ratioP1;P2;durP2;ratioP2
55007;SDS011;40902;45.116;21.296;2023-03-20T00:03:46;14.75;;;9.27;;
55007;SDS011;40902;45.116;21.296;2023-03-20T00:08:42;15.45;;;9.48;;
55007;SDS011;40902;45.116;21.296;2023-03-20T00:11:33;12.43;;;8.45;;
55007;SDS011;40902;45.116;21.296;2023-03-20T00:14:00;12.43;;;8.52;;
55007;SDS011;40902;45.116;21.296;2023-03-20T00:16:46;16.77;;;8.07;;
55007;SDS011;40902;45.116;21.296;2023-03-20T00:19:19;12.88;;;8.93;;
55007;SDS011;40902;45.116;21.296;2023-03-20T00:21:53;15.73;;;9.18;;
55007;SDS011;40902;45.116;21.296;2023-03-20T00:24:20;14.55;;;8.30;;
55007;SDS011;40902;45.116;21.296;2023-03-20T00:26:47;13.55;;;7.60;;
55007;SDS011;40902;45.116;21.296;2023-03-20T00:31:48;8.25;;;5.63;;
55007;SDS011;40902;45.116;21.296;2023-03-20T00:34:15;9.02;;;5.75;;
55007;SDS011;40902;45.116;21.296;2023-03-20T00:36:43;9.70;;;5.18;;
55007;SDS011;40902;45.116;21.296;2023-03-20T00:39:10;8.30;;;5.50;;
55007;SDS011;40902;45.116;21.296;2023-03-20T00:41:40;8.73;;;5.40;;
55007;SDS011;40902;45.116;21.296;2023-03-20T00:44:22;8.43;;;5.50;;
55007;SDS011;40902;45.116;21.296;2023-03-20T00:46:52;7.95;;;5.47;;
55007;SDS011;40902;45.116;21.296;2023-03-20T00:49:24;11.27;;;5.40;;
55007;SDS011;40902;45.116;21.296;2023-03-20T00:51:52;9.57;;;5.47;;
55007;SDS011;40902;45.116;21.296;2023-03-20T00:54:18;9.15;;;5.80;;
55007;SDS011;40902;45.116;21.296;2023-03-20T00:56:47;9.00;;;5.60;;
55007;SDS011;40902;45.116;21.296;2023-03-20T00:59:16;8.15;;;5.53;;
55007;SDS011;40902;45.116;21.296;2023-03-20T01:01:43;8.38;;;5.53;;
55007;SDS011;40902;45.116;21.296;2023-03-20T01:04:14;9.00;;;4.95;;
55007;SDS011;40902;45.116;21.296;2023-03-20T01:06:41;8.73;;;5.45;;
55007;SDS011;40902;45.116;21.296;2023-03-20T01:09:07;10.20;;;5.05;;
55007;SDS011;40902;45.116;21.296;2023-03-20T01:11:33;9.98;;;5.57;;
55007;SDS011;40902;45.116;21.296;2023-03-20T01:14:00;7.05;;;5.05;;
55007;SDS011;40902;45.116;21.296;2023-03-20T01:16:27;8.48;;;5.22;;
55007;SDS011;40902;45.116;21.296;2023-03-20T01:18:53;10.15;;;5.60;;
55007;SDS011;40902;45.116;21.296;2023-03-20T01:21:19;11.10;;;6.80;;
55007;SDS011;40902;45.116;21.296;2023-03-20T01:23:45;9.80;;;5.82;;
55007;SDS011;40902;45.116;21.296;2023-03-20T01:29:01;10.45;;;6.10;;
55007;SDS011;40902;45.116;21.296;2023-03-20T01:31:27;9.25;;;6.65;;
55007;SDS011;40902;45.116;21.296;2023-03-20T01:33:53;9.50;;;6.15;;
55007;SDS011;40902;45.116;21.296;2023-03-20T01:36:19;8.90;;;5.63;;
55007;SDS011;40902;45.116;21.296;2023-03-20T01:38:54;9.45;;;5.88;;
55007;SDS011;40902;45.116;21.296;2023-03-20T01:41:22;9.75;;;5.88;;
55007;SDS011;40902;45.116;21.296;2023-03-20T01:43:49;9.18;;;5.80;;
55007;SDS011;40902;45.116;21.296;2023-03-20T01:53:50;8.40;;;5.30;;
55007;SDS011;40902;45.116;21.296;2023-03-20T01:56:21;8.07;;;4.97;;
55007;SDS011;40902;45.116;21.296;2023-03-20T01:58:48;9.32;;;5.00;;
55007;SDS011;40902;45.116;21.296;2023-03-20T02:01:20;9.60;;;5.65;;
55007;SDS011;40902;45.116;21.296;2023-03-20T02:03:48;9.93;;;5.82;;
55007;SDS011;40902;45.116;21.296;2023-03-20T02:06:14;12.98;;;8.02;;
55007;SDS011;40902;45.116;21.296;2023-03-20T02:08:41;14.55;;;7.57;;
55007;SDS011;40902;45.116;21.296;2023-03-20T02:11:11;12.55;;;6.53;;
55007;SDS011;40902;45.116;21.296;2023-03-20T02:13:37;11.90;;;6.50;;
55007;SDS011;40902;45.116;21.296;2023-03-20T02:16:05;9.85;;;5.90;;
55007;SDS011;40902;45.116;21.296;2023-03-20T02:18:34;9.20;;;5.80;;
55007;SDS011;40902;45.116;21.296;2023-03-20T02:21:11;7.47;;;5.50;;
55007;SDS011;40902;45.116;21.296;2023-03-20T02:32:43;9.05;;;5.20;;
55007;SDS011;40902;45.116;21.296;2023-03-20T02:35:31;7.90;;;5.05;;
55007;SDS011;40902;45.116;21.296;2023-03-20T02:40:51;7.68;;;5.00;;
55007;SDS011;40902;45.116;21.296;2023-03-20T02:49:04;7.82;;;5.07;;
55007;SDS011;40902;45.116;21.296;2023-03-20T02:51:56;7.13;;;5.00;;
55007;SDS011;40902;45.116;21.296;2023-03-20T02:59:29;8.30;;;5.47;;
55007;SDS011;40902;45.116;21.296;2023-03-20T03:04:58;8.40;;;5.63;;
55007;SDS011;40902;45.116;21.296;2023-03-20T03:07:29;9.88;;;5.72;;
55007;SDS011;40902;45.116;21.296;2023-03-20T03:12:35;8.40;;;5.45;;
55007;SDS011;40902;45.116;21.296;2023-03-20T03:15:15;8.60;;;5.65;;
55007;SDS011;40902;45.116;21.296;2023-03-20T03:17:55;10.02;;;5.63;;
55007;SDS011;40902;45.116;21.296;2023-03-20T03:20:30;8.20;;;5.10;;
55007;SDS011;40902;45.116;21.296;2023-03-20T03:23:03;8.75;;;4.57;;
55007;SDS011;40902;45.116;21.296;2023-03-20T03:25:39;8.68;;;5.35;;
55007;SDS011;40902;45.116;21.296;2023-03-20T03:28:13;8.30;;;5.28;;
55007;SDS011;40902;45.116;21.296;2023-03-20T03:30:50;9.25;;;5.35;;
55007;SDS011;40902;45.116;21.296;2023-03-20T03:33:19;7.25;;;4.70;;
55007;SDS011;40902;45.116;21.296;2023-03-20T03:35:48;7.97;;;5.25;;
55007;SDS011;40902;45.116;21.296;2023-03-20T03:43:33;8.27;;;5.22;;
55007;SDS011;40902;45.116;21.296;2023-03-20T03:46:24;9.17;;;5.03;;
55007;SDS011;40902;45.116;21.296;2023-03-20T03:49:04;10.80;;;5.43;;
55007;SDS011;40902;45.116;21.296;2023-03-20T03:51:33;9.02;;;5.10;;
55007;SDS011;40902;45.116;21.296;2023-03-20T03:54:25;7.72;;;4.90;;
55007;SDS011;40902;45.116;21.296;2023-03-20T03:56:52;8.48;;;5.25;;
55007;SDS011;40902;45.116;21.296;2023-03-20T03:59:27;10.05;;;5.07;;
55007;SDS011;40902;45.116;21.296;2023-03-20T04:01:55;9.98;;;5.40;;
55007;SDS011;40902;45.116;21.296;2023-03-20T04:04:22;8.82;;;5.25;;
55007;SDS011;40902;45.116;21.296;2023-03-20T04:06:50;7.93;;;5.28;;
55007;SDS011;40902;45.116;21.296;2023-03-20T04:09:16;7.03;;;5.10;;
55007;SDS011;40902;45.116;21.296;2023-03-20T04:11:42;7.45;;;5.13;;
55007;SDS011;40902;45.116;21.296;2023-03-20T04:14:09;11.35;;;5.13;;
55007;SDS011;40902;45.116;21.296;2023-03-20T04:16:35;12.70;;;5.22;;
55007;SDS011;40902;45.116;21.296;2023-03-20T04:19:01;8.27;;;5.32;;
55007;SDS011;40902;45.116;21.296;2023-03-20T04:21:27;8.48;;;5.00;;
55007;SDS011;40902;45.116;21.296;2023-03-20T04:23:53;8.05;;;4.90;;
55007;SDS011;40902;45.116;21.296;2023-03-20T04:26:19;8.65;;;4.85;;
55007;SDS011;40902;45.116;21.296;2023-03-20T04:28:45;7.35;;;5.50;;
55007;SDS011;40902;45.116;21.296;2023-03-20T04:31:11;9.48;;;5.90;;
55007;SDS011;40902;45.116;21.296;2023-03-20T04:33:38;9.55;;;6.00;;
55007;SDS011;40902;45.116;21.296;2023-03-20T04:36:04;8.98;;;5.90;;
55007;SDS011;40902;45.116;21.296;2023-03-20T04:38:30;9.95;;;6.10;;
55007;SDS011;40902;45.116;21.296;2023-03-20T04:40:56;8.90;;;5.70;;
55007;SDS011;40902;45.116;21.296;2023-03-20T04:43:21;14.23;;;6.30;;
55007;SDS011;40902;45.116;21.296;2023-03-20T04:45:47;9.32;;;5.93;;
55007;SDS011;40902;45.116;21.296;2023-03-20T04:48:13;8.35;;;5.75;;
55007;SDS011;40902;45.116;21.296;2023-03-20T04:50:38;8.40;;;5.78;;
55007;SDS011;40902;45.116;21.296;2023-03-20T04:53:04;12.20;;;8.23;;
55007;SDS011;40902;45.116;21.296;2023-03-20T04:55:30;10.77;;;8.73;;
55007;SDS011;40902;45.116;21.296;2023-03-20T04:57:56;12.82;;;7.60;;
55007;SDS011;40902;45.116;21.296;2023-03-20T05:00:22;12.32;;;7.85;;
55007;SDS011;40902;45.116;21.296;2023-03-20T05:02:47;12.50;;;8.65;;
55007;SDS011;40902;45.116;21.296;2023-03-20T05:05:13;11.45;;;8.52;;
55007;SDS011;40902;45.116;21.296;2023-03-20T05:07:39;14.25;;;8.82;;
55007;SDS011;40902;45.116;21.296;2023-03-20T05:10:05;15.13;;;7.70;;
55007;SDS011;40902;45.116;21.296;2023-03-20T05:12:31;18.67;;;8.48;;
55007;SDS011;40902;45.116;21.296;2023-03-20T05:14:56;12.18;;;8.98;;
55007;SDS011;40902;45.116;21.296;2023-03-20T05:17:23;10.82;;;8.63;;
55007;SDS011;40902;45.116;21.296;2023-03-20T05:19:49;12.90;;;9.07;;
55007;SDS011;40902;45.116;21.296;2023-03-20T05:22:16;13.25;;;8.00;;
55007;SDS011;40902;45.116;21.296;2023-03-20T05:24:42;16.13;;;10.80;;
55007;SDS011;40902;45.116;21.296;2023-03-20T05:27:07;12.93;;;8.95;;
55007;SDS011;40902;45.116;21.296;2023-03-20T05:29:33;17.17;;;9.45;;
55007;SDS011;40902;45.116;21.296;2023-03-20T05:31:59;14.50;;;9.63;;
55007;SDS011;40902;45.116;21.296;2023-03-20T05:34:25;17.90;;;9.02;;
55007;SDS011;40902;45.116;21.296;2023-03-20T05:36:52;16.85;;;9.27;;
55007;SDS011;40902;45.116;21.296;2023-03-20T05:39:18;12.52;;;8.77;;
55007;SDS011;40902;45.116;21.296;2023-03-20T05:41:44;15.70;;;8.75;;
55007;SDS011;40902;45.116;21.296;2023-03-20T05:44:10;12.43;;;7.70;;
55007;SDS011;40902;45.116;21.296;2023-03-20T05:46:36;11.38;;;6.35;;
55007;SDS011;40902;45.116;21.296;2023-03-20T05:49:01;11.18;;;6.60;;
55007;SDS011;40902;45.116;21.296;2023-03-20T05:51:27;10.73;;;6.57;;
55007;SDS011;40902;45.116;21.296;2023-03-20T05:53:53;11.57;;;7.45;;
55007;SDS011;40902;45.116;21.296;2023-03-20T05:56:18;11.75;;;7.20;;
55007;SDS011;40902;45.116;21.296;2023-03-20T05:58:44;13.40;;;7.68;;
55007;SDS011;40902;45.116;21.296;2023-03-20T06:01:10;15.20;;;6.97;;
55007;SDS011;40902;45.116;21.296;2023-03-20T06:03:35;13.45;;;7.55;;
55007;SDS011;40902;45.116;21.296;2023-03-20T06:06:01;12.43;;;6.68;;
55007;SDS011;40902;45.116;21.296;2023-03-20T06:08:28;12.13;;;6.78;;
55007;SDS011;40902;45.116;21.296;2023-03-20T06:10:54;10.98;;;6.22;;
55007;SDS011;40902;45.116;21.296;2023-03-20T06:13:20;11.00;;;6.45;;
55007;SDS011;40902;45.116;21.296;2023-03-20T06:15:46;10.30;;;6.45;;
55007;SDS011;40902;45.116;21.296;2023-03-20T06:18:12;10.52;;;7.55;;
55007;SDS011;40902;45.116;21.296;2023-03-20T06:20:37;9.60;;;6.45;;
55007;SDS011;40902;45.116;21.296;2023-03-20T06:23:03;9.88;;;6.68;;
55007;SDS011;40902;45.116;21.296;2023-03-20T06:25:29;11.85;;;6.97;;
55007;SDS011;40902;45.116;21.296;2023-03-20T06:27:54;11.55;;;7.32;;
55007;SDS011;40902;45.116;21.296;2023-03-20T06:30:20;12.35;;;6.75;;
55007;SDS011;40902;45.116;21.296;2023-03-20T06:32:46;12.07;;;7.15;;
55007;SDS011;40902;45.116;21.296;2023-03-20T06:35:12;9.57;;;6.72;;
55007;SDS011;40902;45.116;21.296;2023-03-20T06:37:38;12.57;;;7.05;;
55007;SDS011;40902;45.116;21.296;2023-03-20T06:40:04;11.55;;;7.10;;
55007;SDS011;40902;45.116;21.296;2023-03-20T06:42:31;9.90;;;6.60;;
55007;SDS011;40902;45.116;21.296;2023-03-20T06:44:56;11.30;;;6.72;;
55007;SDS011;40902;45.116;21.296;2023-03-20T06:47:22;8.32;;;5.93;;
55007;SDS011;40902;45.116;21.296;2023-03-20T06:49:48;15.60;;;7.65;;
55007;SDS011;40902;45.116;21.296;2023-03-20T06:52:14;11.25;;;6.65;;
55007;SDS011;40902;45.116;21.296;2023-03-20T06:54:41;9.43;;;6.35;;
55007;SDS011;40902;45.116;21.296;2023-03-20T06:57:07;13.25;;;6.20;;
55007;SDS011;40902;45.116;21.296;2023-03-20T06:59:33;9.82;;;6.20;;
55007;SDS011;40902;45.116;21.296;2023-03-20T07:01:58;9.77;;;6.85;;
55007;SDS011;40902;45.116;21.296;2023-03-20T07:04:24;8.77;;;5.95;;
55007;SDS011;40902;45.116;21.296;2023-03-20T07:06:50;10.05;;;6.18;;
55007;SDS011;40902;45.116;21.296;2023-03-20T07:09:16;9.35;;;6.15;;
55007;SDS011;40902;45.116;21.296;2023-03-20T07:11:42;11.25;;;6.50;;
55007;SDS011;40902;45.116;21.296;2023-03-20T07:14:09;10.23;;;6.13;;
55007;SDS011;40902;45.116;21.296;2023-03-20T07:16:35;10.90;;;5.55;;
55007;SDS011;40902;45.116;21.296;2023-03-20T07:19:00;8.73;;;6.22;;
55007;SDS011;40902;45.116;21.296;2023-03-20T07:21:26;12.23;;;6.53;;
55007;SDS011;40902;45.116;21.296;2023-03-20T07:23:53;9.25;;;5.90;;
55007;SDS011;40902;45.116;21.296;2023-03-20T07:26:18;10.15;;;6.70;;
55007;SDS011;40902;45.116;21.296;2023-03-20T07:28:44;10.60;;;6.32;;
55007;SDS011;40902;45.116;21.296;2023-03-20T07:31:17;8.63;;;5.90;;
55007;SDS011;40902;45.116;21.296;2023-03-20T07:33:47;9.82;;;6.10;;
55007;SDS011;40902;45.116;21.296;2023-03-20T07:36:13;11.75;;;6.32;;
55007;SDS011;40902;45.116;21.296;2023-03-20T07:38:39;7.78;;;5.93;;
55007;SDS011;40902;45.116;21.296;2023-03-20T07:41:05;10.70;;;6.10;;
55007;SDS011;40902;45.116;21.296;2023-03-20T07:43:32;10.45;;;5.55;;
55007;SDS011;40902;45.116;21.296;2023-03-20T07:46:00;9.82;;;5.40;;
55007;SDS011;40902;45.116;21.296;2023-03-20T07:48:26;11.25;;;5.78;;
55007;SDS011;40902;45.116;21.296;2023-03-20T07:50:52;10.13;;;5.97;;
55007;SDS011;40902;45.116;21.296;2023-03-20T07:53:18;9.68;;;5.70;;
55007;SDS011;40902;45.116;21.296;2023-03-20T07:55:44;10.70;;;6.28;;
55007;SDS011;40902;45.116;21.296;2023-03-20T07:58:10;10.25;;;5.88;;
55007;SDS011;40902;45.116;21.296;2023-03-20T08:00:37;10.40;;;5.82;;
55007;SDS011;40902;45.116;21.296;2023-03-20T08:03:03;9.13;;;5.90;;
55007;SDS011;40902;45.116;21.296;2023-03-20T08:05:29;10.43;;;6.15;;
55007;SDS011;40902;45.116;21.296;2023-03-20T08:07:55;9.52;;;6.03;;
55007;SDS011;40902;45.116;21.296;2023-03-20T08:10:21;13.07;;;7.00;;
55007;SDS011;40902;45.116;21.296;2023-03-20T08:12:47;9.07;;;6.00;;
55007;SDS011;40902;45.116;21.296;2023-03-20T08:15:13;11.15;;;6.70;;
55007;SDS011;40902;45.116;21.296;2023-03-20T08:17:43;11.38;;;6.53;;
55007;SDS011;40902;45.116;21.296;2023-03-20T08:20:11;9.88;;;6.50;;
55007;SDS011;40902;45.116;21.296;2023-03-20T08:22:38;11.70;;;6.60;;
55007;SDS011;40902;45.116;21.296;2023-03-20T08:25:04;11.55;;;6.72;;
55007;SDS011;40902;45.116;21.296;2023-03-20T08:27:32;12.30;;;6.68;;
55007;SDS011;40902;45.116;21.296;2023-03-20T08:29:58;10.65;;;6.90;;
55007;SDS011;40902;45.116;21.296;2023-03-20T08:32:24;10.95;;;7.03;;
55007;SDS011;40902;45.116;21.296;2023-03-20T08:34:51;10.88;;;7.03;;
55007;SDS011;40902;45.116;21.296;2023-03-20T08:37:19;12.93;;;7.05;;
55007;SDS011;40902;45.116;21.296;2023-03-20T08:39:45;10.30;;;7.18;;
55007;SDS011;40902;45.116;21.296;2023-03-20T08:42:11;11.15;;;7.05;;
55007;SDS011;40902;45.116;21.296;2023-03-20T08:44:37;10.48;;;6.85;;
55007;SDS011;40902;45.116;21.296;2023-03-20T08:47:03;10.65;;;6.13;;
55007;SDS011;40902;45.116;21.296;2023-03-20T08:49:31;17.48;;;7.18;;
55007;SDS011;40902;45.116;21.296;2023-03-20T08:51:58;9.52;;;7.00;;
55007;SDS011;40902;45.116;21.296;2023-03-20T08:54:24;12.32;;;7.63;;
55007;SDS011;40902;45.116;21.296;2023-03-20T08:56:50;11.30;;;7.00;;
55007;SDS011;40902;45.116;21.296;2023-03-20T08:59:16;10.13;;;6.97;;
55007;SDS011;40902;45.116;21.296;2023-03-20T09:01:43;9.48;;;7.38;;
55007;SDS011;40902;45.116;21.296;2023-03-20T09:04:09;12.98;;;7.97;;
55007;SDS011;40902;45.116;21.296;2023-03-20T09:06:36;12.27;;;7.60;;
55007;SDS011;40902;45.116;21.296;2023-03-20T09:09:02;13.38;;;7.93;;
55007;SDS011;40902;45.116;21.296;2023-03-20T09:11:29;12.48;;;8.05;;
55007;SDS011;40902;45.116;21.296;2023-03-20T09:13:55;10.45;;;7.32;;
55007;SDS011;40902;45.116;21.296;2023-03-20T09:16:21;13.77;;;8.27;;
55007;SDS011;40902;45.116;21.296;2023-03-20T09:18:47;12.50;;;8.52;;
55007;SDS011;40902;45.116;21.296;2023-03-20T09:21:13;11.50;;;8.15;;
55007;SDS011;40902;45.116;21.296;2023-03-20T09:23:39;11.40;;;8.50;;
55007;SDS011;40902;45.116;21.296;2023-03-20T09:26:05;12.65;;;8.13;;
55007;SDS011;40902;45.116;21.296;2023-03-20T09:28:31;11.75;;;8.68;;
55007;SDS011;40902;45.116;21.296;2023-03-20T09:30:58;14.20;;;9.20;;
55007;SDS011;40902;45.116;21.296;2023-03-20T09:33:24;13.13;;;9.60;;
55007;SDS011;40902;45.116;21.296;2023-03-20T09:35:51;38.55;;;10.27;;
55007;SDS011;40902;45.116;21.296;2023-03-20T09:38:17;13.20;;;8.93;;
55007;SDS011;40902;45.116;21.296;2023-03-20T09:40:48;13.80;;;8.57;;
55007;SDS011;40902;45.116;21.296;2023-03-20T09:43:21;16.08;;;10.55;;
55007;SDS011;40902;45.116;21.296;2023-03-20T09:48:39;12.25;;;8.40;;
55007;SDS011;40902;45.116;21.296;2023-03-20T09:51:10;13.45;;;8.73;;
55007;SDS011;40902;45.116;21.296;2023-03-20T09:53:48;12.70;;;8.75;;
55007;SDS011;40902;45.116;21.296;2023-03-20T09:56:18;12.88;;;9.02;;
55007;SDS011;40902;45.116;21.296;2023-03-20T09:58:55;12.85;;;8.38;;
55007;SDS011;40902;45.116;21.296;2023-03-20T10:04:08;13.05;;;8.52;;
55007;SDS011;40902;45.116;21.296;2023-03-20T10:06:35;13.27;;;8.50;;
55007;SDS011;40902;45.116;21.296;2023-03-20T10:09:01;12.77;;;8.60;;
55007;SDS011;40902;45.116;21.296;2023-03-20T10:11:31;27.85;;;18.55;;
55007;SDS011;40902;45.116;21.296;2023-03-20T10:19:08;24.13;;;17.58;;
55007;SDS011;40902;45.116;21.296;2023-03-20T10:24:55;12.73;;;8.98;;
55007;SDS011;40902;45.116;21.296;2023-03-20T10:26:57;13.18;;;9.05;;
55007;SDS011;40902;45.116;21.296;2023-03-20T10:29:48;14.05;;;9.88;;
55007;SDS011;40902;45.116;21.296;2023-03-20T10:32:16;12.07;;;9.38;;
55007;SDS011;40902;45.116;21.296;2023-03-20T10:34:51;13.98;;;8.68;;
55007;SDS011;40902;45.116;21.296;2023-03-20T10:42:28;13.40;;;9.50;;
55007;SDS011;40902;45.116;21.296;2023-03-20T10:45:06;15.25;;;9.20;;
55007;SDS011;40902;45.116;21.296;2023-03-20T10:47:43;14.38;;;9.70;;
55007;SDS011;40902;45.116;21.296;2023-03-20T10:50:15;14.25;;;9.07;;
55007;SDS011;40902;45.116;21.296;2023-03-20T10:52:43;14.88;;;8.95;;
55007;SDS011;40902;45.116;21.296;2023-03-20T10:55:14;15.30;;;9.70;;
55007;SDS011;40902;45.116;21.296;2023-03-20T10:57:48;13.05;;;9.65;;
55007;SDS011;40902;45.116;21.296;2023-03-20T11:00:21;13.00;;;9.25;;
55007;SDS011;40902;45.116;21.296;2023-03-20T11:02:48;16.10;;;9.80;;
55007;SDS011;40902;45.116;21.296;2023-03-20T11:05:22;13.07;;;9.52;;
55007;SDS011;40902;45.116;21.296;2023-03-20T11:10:30;13.45;;;9.10;;
55007;SDS011;40902;45.116;21.296;2023-03-20T11:12:57;14.88;;;9.65;;
55007;SDS011;40902;45.116;21.296;2023-03-20T11:15:41;14.00;;;9.43;;
55007;SDS011;40902;45.116;21.296;2023-03-20T11:18:08;14.88;;;9.63;;
55007;SDS011;40902;45.116;21.296;2023-03-20T11:20:50;13.55;;;9.07;;
55007;SDS011;40902;45.116;21.296;2023-03-20T11:23:23;11.55;;;8.85;;
55007;SDS011;40902;45.116;21.296;2023-03-20T11:25:55;12.57;;;9.73;;
55007;SDS011;40902;45.116;21.296;2023-03-20T11:28:40;14.57;;;9.07;;
55007;SDS011;40902;45.116;21.296;2023-03-20T11:36:45;13.13;;;8.98;;
55007;SDS011;40902;45.116;21.296;2023-03-20T11:39:25;11.45;;;7.85;;
55007;SDS011;40902;45.116;21.296;2023-03-20T11:42:00;12.05;;;8.10;;
55007;SDS011;40902;45.116;21.296;2023-03-20T11:44:33;12.70;;;7.20;;
55007;SDS011;40902;45.116;21.296;2023-03-20T11:49:30;12.88;;;6.60;;
55007;SDS011;40902;45.116;21.296;2023-03-20T11:52:10;11.35;;;6.97;;
55007;SDS011;40902;45.116;21.296;2023-03-20T11:54:37;9.27;;;6.30;;
55007;SDS011;40902;45.116;21.296;2023-03-20T11:59:52;9.95;;;6.70;;
55007;SDS011;40902;45.116;21.296;2023-03-20T12:02:20;12.75;;;6.30;;
55007;SDS011;40902;45.116;21.296;2023-03-20T12:04:48;11.18;;;6.82;;
55007;SDS011;40902;45.116;21.296;2023-03-20T12:07:21;8.75;;;6.60;;
55007;SDS011;40902;45.116;21.296;2023-03-20T12:23:05;8.07;;;5.45;;
55007;SDS011;40902;45.116;21.296;2023-03-20T12:33:22;9.93;;;5.50;;
55007;SDS011;40902;45.116;21.296;2023-03-20T12:35:51;7.65;;;5.00;;
55007;SDS011;40902;45.116;21.296;2023-03-20T12:38:26;7.85;;;4.82;;
55007;SDS011;40902;45.116;21.296;2023-03-20T12:40:54;9.77;;;5.78;;
55007;SDS011;40902;45.116;21.296;2023-03-20T12:43:24;9.10;;;5.78;;
55007;SDS011;40902;45.116;21.296;2023-03-20T12:45:52;8.52;;;5.82;;
55007;SDS011;40902;45.116;21.296;2023-03-20T12:50:54;6.50;;;4.65;;
55007;SDS011;40902;45.116;21.296;2023-03-20T12:58:37;6.72;;;4.32;;
55007;SDS011;40902;45.116;21.296;2023-03-20T13:03:43;6.32;;;4.50;;
55007;SDS011;40902;45.116;21.296;2023-03-20T13:09:07;9.00;;;5.10;;
55007;SDS011;40902;45.116;21.296;2023-03-20T13:25:00;7.65;;;5.05;;
55007;SDS011;40902;45.116;21.296;2023-03-20T13:30:33;9.80;;;4.93;;
55007;SDS011;40902;45.116;21.296;2023-03-20T13:35:51;8.65;;;5.50;;
55007;SDS011;40902;45.116;21.296;2023-03-20T13:38:21;8.13;;;5.60;;
55007;SDS011;40902;45.116;21.296;2023-03-20T13:40:52;11.68;;;6.07;;
55007;SDS011;40902;45.116;21.296;2023-03-20T13:43:36;9.75;;;5.88;;
55007;SDS011;40902;45.116;21.296;2023-03-20T13:48:43;7.55;;;5.25;;
55007;SDS011;40902;45.116;21.296;2023-03-20T13:51:12;7.15;;;4.70;;
55007;SDS011;40902;45.116;21.296;2023-03-20T14:01:06;9.40;;;4.57;;
55007;SDS011;40902;45.116;21.296;2023-03-20T14:03:35;7.13;;;4.13;;
55007;SDS011;40902;45.116;21.296;2023-03-20T14:08:47;8.65;;;4.32;;
55007;SDS011;40902;45.116;21.296;2023-03-20T14:13:48;10.07;;;4.40;;
55007;SDS011;40902;45.116;21.296;2023-03-20T14:16:16;6.38;;;4.30;;
55007;SDS011;40902;45.116;21.296;2023-03-20T14:18:47;6.97;;;4.30;;
55007;SDS011;40902;45.116;21.296;2023-03-20T14:21:17;9.02;;;5.22;;
55007;SDS011;40902;45.116;21.296;2023-03-20T14:23:47;9.20;;;4.28;;
55007;SDS011;40902;45.116;21.296;2023-03-20T14:31:49;7.45;;;4.25;;
55007;SDS011;40902;45.116;21.296;2023-03-20T14:36:57;8.57;;;4.75;;
55007;SDS011;40902;45.116;21.296;2023-03-20T14:42:04;8.65;;;4.07;;
55007;SDS011;40902;45.116;21.296;2023-03-20T14:44:49;7.78;;;4.07;;
55007;SDS011;40902;45.116;21.296;2023-03-20T14:50:16;7.28;;;4.53;;
55007;SDS011;40902;45.116;21.296;2023-03-20T14:52:47;10.20;;;5.72;;
55007;SDS011;40902;45.116;21.296;2023-03-20T14:57:42;9.65;;;5.03;;
55007;SDS011;40902;45.116;21.296;2023-03-20T15:00:43;8.30;;;4.95;;
55007;SDS011;40902;45.116;21.296;2023-03-20T15:05:32;9.60;;;4.68;;
55007;SDS011;40902;45.116;21.296;2023-03-20T15:08:14;8.10;;;4.70;;
55007;SDS011;40902;45.116;21.296;2023-03-20T15:10:46;11.43;;;5.30;;
55007;SDS011;40902;45.116;21.296;2023-03-20T15:13:14;12.15;;;5.72;;
55007;SDS011;40902;45.116;21.296;2023-03-20T15:15:54;8.55;;;4.65;;
55007;SDS011;40902;45.116;21.296;2023-03-20T15:18:21;7.95;;;4.40;;
55007;SDS011;40902;45.116;21.296;2023-03-20T15:20:49;12.85;;;5.57;;
55007;SDS011;40902;45.116;21.296;2023-03-20T15:23:15;11.85;;;6.10;;
55007;SDS011;40902;45.116;21.296;2023-03-20T15:25:44;10.90;;;6.40;;
55007;SDS011;40902;45.116;21.296;2023-03-20T15:28:21;11.05;;;6.00;;
55007;SDS011;40902;45.116;21.296;2023-03-20T15:30:49;8.80;;;5.15;;
55007;SDS011;40902;45.116;21.296;2023-03-20T15:33:25;9.15;;;5.32;;
55007;SDS011;40902;45.116;21.296;2023-03-20T15:36:05;10.52;;;5.03;;
55007;SDS011;40902;45.116;21.296;2023-03-20T15:38:33;9.63;;;4.70;;
55007;SDS011;40902;45.116;21.296;2023-03-20T15:41:06;9.13;;;4.78;;
55007;SDS011;40902;45.116;21.296;2023-03-20T15:43:47;8.68;;;4.15;;
55007;SDS011;40902;45.116;21.296;2023-03-20T15:46:13;12.45;;;5.18;;
55007;SDS011;40902;45.116;21.296;2023-03-20T15:48:38;12.02;;;6.35;;
55007;SDS011;40902;45.116;21.296;2023-03-20T15:51:04;10.77;;;5.55;;
55007;SDS011;40902;45.116;21.296;2023-03-20T15:53:31;24.63;;;11.95;;
55007;SDS011;40902;45.116;21.296;2023-03-20T15:56:12;19.75;;;9.32;;
55007;SDS011;40902;45.116;21.296;2023-03-20T15:58:40;14.18;;;6.53;;
55007;SDS011;40902;45.116;21.296;2023-03-20T16:01:07;10.13;;;5.72;;
55007;SDS011;40902;45.116;21.296;2023-03-20T16:03:36;7.60;;;4.53;;
55007;SDS011;40902;45.116;21.296;2023-03-20T16:06:06;11.60;;;5.35;;
55007;SDS011;40902;45.116;21.296;2023-03-20T16:08:35;8.43;;;4.78;;
55007;SDS011;40902;45.116;21.296;2023-03-20T16:11:09;11.57;;;5.10;;
55007;SDS011;40902;45.116;21.296;2023-03-20T16:13:41;12.30;;;6.90;;
55007;SDS011;40902;45.116;21.296;2023-03-20T16:16:13;14.20;;;5.93;;
55007;SDS011;40902;45.116;21.296;2023-03-20T16:18:44;14.52;;;7.53;;
55007;SDS011;40902;45.116;21.296;2023-03-20T16:21:14;12.50;;;6.55;;
55007;SDS011;40902;45.116;21.296;2023-03-20T16:23:54;12.98;;;7.28;;
55007;SDS011;40902;45.116;21.296;2023-03-20T16:26:22;16.35;;;8.52;;
55007;SDS011;40902;45.116;21.296;2023-03-20T16:28:49;14.48;;;8.10;;
55007;SDS011;40902;45.116;21.296;2023-03-20T16:31:20;18.20;;;8.95;;
55007;SDS011;40902;45.116;21.296;2023-03-20T16:33:51;12.73;;;7.22;;
55007;SDS011;40902;45.116;21.296;2023-03-20T16:36:20;19.20;;;8.13;;
55007;SDS011;40902;45.116;21.296;2023-03-20T16:38:55;11.85;;;7.57;;
55007;SDS011;40902;45.116;21.296;2023-03-20T16:41:29;14.93;;;8.00;;
55007;SDS011;40902;45.116;21.296;2023-03-20T16:43:57;15.75;;;9.00;;
55007;SDS011;40902;45.116;21.296;2023-03-20T16:46:24;15.27;;;9.68;;
55007;SDS011;40902;45.116;21.296;2023-03-20T16:48:51;19.75;;;10.35;;
55007;SDS011;40902;45.116;21.296;2023-03-20T16:51:24;21.35;;;11.35;;
55007;SDS011;40902;45.116;21.296;2023-03-20T16:53:58;20.33;;;12.43;;
55007;SDS011;40902;45.116;21.296;2023-03-20T16:56:32;37.40;;;24.70;;
55007;SDS011;40902;45.116;21.296;2023-03-20T16:59:10;28.52;;;16.70;;
55007;SDS011;40902;45.116;21.296;2023-03-20T17:01:43;29.50;;;14.65;;
55007;SDS011;40902;45.116;21.296;2023-03-20T17:04:13;28.30;;;13.30;;
55007;SDS011;40902;45.116;21.296;2023-03-20T17:06:48;20.92;;;11.07;;
55007;SDS011;40902;45.116;21.296;2023-03-20T17:09:18;15.75;;;9.57;;
55007;SDS011;40902;45.116;21.296;2023-03-20T17:11:50;17.27;;;10.18;;
55007;SDS011;40902;45.116;21.296;2023-03-20T17:14:35;20.40;;;11.90;;
55007;SDS011;40902;45.116;21.296;2023-03-20T17:17:01;17.38;;;10.00;;
55007;SDS011;40902;45.116;21.296;2023-03-20T17:19:27;20.85;;;10.82;;
55007;SDS011;40902;45.116;21.296;2023-03-20T17:21:55;17.95;;;9.85;;
55007;SDS011;40902;45.116;21.296;2023-03-20T17:24:23;17.13;;;11.23;;
55007;SDS011;40902;45.116;21.296;2023-03-20T17:26:52;17.65;;;11.98;;
55007;SDS011;40902;45.116;21.296;2023-03-20T17:29:22;19.42;;;12.38;;